sensor_id;sensor_type;location;lat;lon;timestamp;pressure;altitude;pressure_sealevel;temperature;humidity
12626;BME280;6378;42.684;23.372;2022-07-17T00:01:32;95415.25;;;23.28;67.18
12626;BME280;6378;42.684;23.372;2022-07-17T00:03:57;95384.28;;;23.04;67.13
12626;BME280;6378;42.684;23.372;2022-07-17T00:06:23;95406.78;;;23.19;68.10
12626;BME280;6378;42.684;23.372;2022-07-17T00:08:48;95416.22;;;23.18;67.90
12626;BME280;6378;42.684;23.372;2022-07-17T00:11:13;95412.69;;;23.17;68.01
12626;BME280;6378;42.684;23.372;2022-07-17T00:13:39;95412.81;;;23.10;68.82
12626;BME280;6378;42.684;23.372;2022-07-17T00:16:05;95422.06;;;23.20;69.50
12626;BME280;6378;42.684;23.372;2022-07-17T00:18:30;95423.63;;;23.21;68.17
12626;BME280;6378;42.684;23.372;2022-07-17T00:20:56;95408.03;;;23.14;68.26
12626;BME280;6378;42.684;23.372;2022-07-17T00:23:21;95430.25;;;23.23;68.08
12626;BME280;6378;42.684;23.372;2022-07-17T00:25:46;95427.91;;;23.22;68.00
12626;BME280;6378;42.684;23.372;2022-07-17T00:28:12;95436.53;;;23.24;68.33
12626;BME280;6378;42.684;23.372;2022-07-17T00:30:38;95426.31;;;23.24;68.29
12626;BME280;6378;42.684;23.372;2022-07-17T00:33:03;95433.00;;;23.23;68.81
12626;BME280;6378;42.684;23.372;2022-07-17T00:35:29;95429.78;;;23.28;68.57
12626;BME280;6378;42.684;23.372;2022-07-17T00:37:55;95423.25;;;23.19;68.73
12626;BME280;6378;42.684;23.372;2022-07-17T00:40:22;95432.38;;;23.12;69.17
12626;BME280;6378;42.684;23.372;2022-07-17T00:42:49;95426.41;;;23.17;68.36
12626;BME280;6378;42.684;23.372;2022-07-17T00:45:14;95435.13;;;23.12;68.00
12626;BME280;6378;42.684;23.372;2022-07-17T00:47:59;95430.53;;;23.06;68.92
12626;BME280;6378;42.684;23.372;2022-07-17T00:50:27;95428.66;;;22.99;68.87
12626;BME280;6378;42.684;23.372;2022-07-17T00:52:53;95434.94;;;23.00;68.57
12626;BME280;6378;42.684;23.372;2022-07-17T00:55:20;95436.13;;;22.99;68.64
12626;BME280;6378;42.684;23.372;2022-07-17T00:57:47;95453.31;;;23.03;69.42
12626;BME280;6378;42.684;23.372;2022-07-17T01:00:15;95439.19;;;23.04;68.31
12626;BME280;6378;42.684;23.372;2022-07-17T01:02:45;95453.38;;;22.99;68.19
12626;BME280;6378;42.684;23.372;2022-07-17T01:05:11;95446.47;;;22.87;68.88
12626;BME280;6378;42.684;23.372;2022-07-17T01:07:36;95451.94;;;22.91;68.72
12626;BME280;6378;42.684;23.372;2022-07-17T01:10:02;95437.25;;;22.74;68.92
12626;BME280;6378;42.684;23.372;2022-07-17T01:12:28;95447.78;;;22.79;69.03
12626;BME280;6378;42.684;23.372;2022-07-17T01:14:55;95453.66;;;22.81;69.04
12626;BME280;6378;42.684;23.372;2022-07-17T01:17:22;95447.00;;;22.79;68.63
12626;BME280;6378;42.684;23.372;2022-07-17T01:19:47;95451.56;;;22.89;68.68
12626;BME280;6378;42.684;23.372;2022-07-17T01:22:13;95445.41;;;22.81;68.94
12626;BME280;6378;42.684;23.372;2022-07-17T01:24:39;95456.38;;;22.81;68.56
12626;BME280;6378;42.684;23.372;2022-07-17T01:27:05;95453.22;;;22.83;69.06
12626;BME280;6378;42.684;23.372;2022-07-17T01:29:31;95454.47;;;22.78;68.88
12626;BME280;6378;42.684;23.372;2022-07-17T01:31:56;95443.38;;;22.85;68.22
12626;BME280;6378;42.684;23.372;2022-07-17T01:34:22;95422.41;;;22.68;68.54
12626;BME280;6378;42.684;23.372;2022-07-17T01:36:47;95446.94;;;22.82;68.62
12626;BME280;6378;42.684;23.372;2022-07-17T01:39:13;95425.94;;;22.72;67.50
12626;BME280;6378;42.684;23.372;2022-07-17T01:41:38;95444.94;;;22.86;67.94
12626;BME280;6378;42.684;23.372;2022-07-17T01:44:05;95447.97;;;22.92;67.69
12626;BME280;6378;42.684;23.372;2022-07-17T01:46:31;95453.38;;;22.99;67.30
12626;BME280;6378;42.684;23.372;2022-07-17T01:48:57;95451.78;;;23.02;66.71
12626;BME280;6378;42.684;23.372;2022-07-17T01:51:22;95426.19;;;22.81;66.59
12626;BME280;6378;42.684;23.372;2022-07-17T01:53:48;95452.13;;;23.04;65.46
12626;BME280;6378;42.684;23.372;2022-07-17T01:56:13;95452.25;;;22.97;64.95
12626;BME280;6378;42.684;23.372;2022-07-17T01:58:39;95455.47;;;22.92;66.33
12626;BME280;6378;42.684;23.372;2022-07-17T02:01:04;95432.97;;;22.73;66.37
12626;BME280;6378;42.684;23.372;2022-07-17T02:03:30;95415.75;;;22.69;67.02
12626;BME280;6378;42.684;23.372;2022-07-17T02:05:55;95452.44;;;22.82;66.97
12626;BME280;6378;42.684;23.372;2022-07-17T02:08:21;95459.59;;;22.76;67.03
12626;BME280;6378;42.684;23.372;2022-07-17T02:10:46;95460.41;;;22.73;67.05
12626;BME280;6378;42.684;23.372;2022-07-17T02:13:12;95451.94;;;22.61;66.75
12626;BME280;6378;42.684;23.372;2022-07-17T02:15:37;95459.28;;;22.71;66.16
12626;BME280;6378;42.684;23.372;2022-07-17T02:18:03;95460.06;;;22.71;65.72
12626;BME280;6378;42.684;23.372;2022-07-17T02:20:28;95452.59;;;22.72;66.19
12626;BME280;6378;42.684;23.372;2022-07-17T02:22:54;95462.06;;;22.64;66.44
12626;BME280;6378;42.684;23.372;2022-07-17T02:25:19;95467.25;;;22.58;66.83
12626;BME280;6378;42.684;23.372;2022-07-17T02:27:45;95456.72;;;22.53;67.40
12626;BME280;6378;42.684;23.372;2022-07-17T02:30:13;95436.94;;;22.38;67.71
12626;BME280;6378;42.684;23.372;2022-07-17T02:32:41;95457.03;;;22.59;67.07
12626;BME280;6378;42.684;23.372;2022-07-17T02:35:07;95457.47;;;22.57;66.71
12626;BME280;6378;42.684;23.372;2022-07-17T02:37:33;95466.50;;;22.54;66.71
12626;BME280;6378;42.684;23.372;2022-07-17T02:39:59;95458.66;;;22.56;66.44
12626;BME280;6378;42.684;23.372;2022-07-17T02:42:26;95436.19;;;22.34;67.11
12626;BME280;6378;42.684;23.372;2022-07-17T02:44:52;95460.75;;;22.45;67.26
12626;BME280;6378;42.684;23.372;2022-07-17T02:47:22;95470.03;;;22.55;67.22
12626;BME280;6378;42.684;23.372;2022-07-17T02:49:49;95472.00;;;22.54;65.31
12626;BME280;6378;42.684;23.372;2022-07-17T02:52:15;95462.66;;;22.48;66.07
12626;BME280;6378;42.684;23.372;2022-07-17T02:54:40;95468.47;;;22.54;65.08
12626;BME280;6378;42.684;23.372;2022-07-17T02:57:06;95469.72;;;22.49;65.33
12626;BME280;6378;42.684;23.372;2022-07-17T02:59:32;95474.81;;;22.51;65.23
12626;BME280;6378;42.684;23.372;2022-07-17T03:01:57;95464.66;;;22.48;65.21
12626;BME280;6378;42.684;23.372;2022-07-17T03:04:22;95482.66;;;22.48;64.94
12626;BME280;6378;42.684;23.372;2022-07-17T03:06:48;95491.47;;;22.63;64.46
12626;BME280;6378;42.684;23.372;2022-07-17T03:09:13;95491.47;;;22.63;63.96
12626;BME280;6378;42.684;23.372;2022-07-17T03:11:39;95486.44;;;22.58;63.67
12626;BME280;6378;42.684;23.372;2022-07-17T03:14:04;95486.09;;;22.56;63.55
12626;BME280;6378;42.684;23.372;2022-07-17T03:16:29;95497.06;;;22.56;63.37
12626;BME280;6378;42.684;23.372;2022-07-17T03:18:55;95494.78;;;22.51;64.61
12626;BME280;6378;42.684;23.372;2022-07-17T03:21:20;95495.19;;;22.50;64.90
12626;BME280;6378;42.684;23.372;2022-07-17T03:23:46;95495.69;;;22.41;65.27
12626;BME280;6378;42.684;23.372;2022-07-17T03:26:11;95504.16;;;22.54;65.09
12626;BME280;6378;42.684;23.372;2022-07-17T03:28:36;95502.09;;;22.61;64.46
12626;BME280;6378;42.684;23.372;2022-07-17T03:31:02;95500.19;;;22.88;62.43
12626;BME280;6378;42.684;23.372;2022-07-17T03:33:27;95500.34;;;23.31;61.35
12626;BME280;6378;42.684;23.372;2022-07-17T03:35:53;95500.28;;;23.85;59.46
12626;BME280;6378;42.684;23.372;2022-07-17T03:38:18;95433.28;;;23.75;58.02
12626;BME280;6378;42.684;23.372;2022-07-17T03:40:44;95508.22;;;24.66;56.07
12626;BME280;6378;42.684;23.372;2022-07-17T03:43:09;95513.47;;;25.16;53.63
12626;BME280;6378;42.684;23.372;2022-07-17T03:45:35;95528.28;;;25.74;51.89
12626;BME280;6378;42.684;23.372;2022-07-17T03:48:00;95522.44;;;26.17;50.30
12626;BME280;6378;42.684;23.372;2022-07-17T03:50:26;95507.88;;;26.33;48.99
12626;BME280;6378;42.684;23.372;2022-07-17T03:52:51;95524.78;;;26.76;47.43
12626;BME280;6378;42.684;23.372;2022-07-17T03:55:17;95527.63;;;27.01;47.17
12626;BME280;6378;42.684;23.372;2022-07-17T03:57:42;95535.06;;;27.17;46.98
12626;BME280;6378;42.684;23.372;2022-07-17T04:00:08;95497.25;;;27.27;43.38
12626;BME280;6378;42.684;23.372;2022-07-17T04:02:34;95528.78;;;27.67;41.91
12626;BME280;6378;42.684;23.372;2022-07-17T04:04:59;95552.63;;;28.12;41.46
12626;BME280;6378;42.684;23.372;2022-07-17T04:07:25;95523.00;;;28.34;41.20
12626;BME280;6378;42.684;23.372;2022-07-17T04:09:57;95547.31;;;28.52;40.98
12626;BME280;6378;42.684;23.372;2022-07-17T04:12:24;95544.94;;;28.63;41.23
12626;BME280;6378;42.684;23.372;2022-07-17T04:14:49;95555.00;;;28.91;40.47
12626;BME280;6378;42.684;23.372;2022-07-17T04:17:15;95558.34;;;29.08;40.40
12626;BME280;6378;42.684;23.372;2022-07-17T04:19:40;95556.31;;;29.30;40.03
12626;BME280;6378;42.684;23.372;2022-07-17T04:22:06;95563.47;;;29.71;39.03
12626;BME280;6378;42.684;23.372;2022-07-17T04:24:31;95567.00;;;30.21;37.90
12626;BME280;6378;42.684;23.372;2022-07-17T04:26:56;95570.94;;;30.69;36.76
12626;BME280;6378;42.684;23.372;2022-07-17T04:29:22;95549.03;;;30.62;36.75
12626;BME280;6378;42.684;23.372;2022-07-17T04:31:47;95558.56;;;30.42;37.21
12626;BME280;6378;42.684;23.372;2022-07-17T04:34:13;95572.97;;;30.59;36.94
12626;BME280;6378;42.684;23.372;2022-07-17T04:36:38;95570.28;;;31.01;36.12
12626;BME280;6378;42.684;23.372;2022-07-17T04:39:04;95501.63;;;30.56;36.05
12626;BME280;6378;42.684;23.372;2022-07-17T04:41:29;95575.38;;;31.21;36.15
12626;BME280;6378;42.684;23.372;2022-07-17T04:43:54;95582.41;;;31.58;34.89
12626;BME280;6378;42.684;23.372;2022-07-17T04:46:20;95557.31;;;31.76;34.05
12626;BME280;6378;42.684;23.372;2022-07-17T04:48:45;95586.88;;;32.31;32.83
12626;BME280;6378;42.684;23.372;2022-07-17T04:51:11;95592.44;;;32.63;32.36
12626;BME280;6378;42.684;23.372;2022-07-17T04:53:36;95591.50;;;32.81;32.07
12626;BME280;6378;42.684;23.372;2022-07-17T04:56:03;95591.22;;;32.79;31.84
12626;BME280;6378;42.684;23.372;2022-07-17T04:58:28;95590.81;;;32.72;31.87
12626;BME280;6378;42.684;23.372;2022-07-17T05:00:54;95601.19;;;32.71;32.13
12626;BME280;6378;42.684;23.372;2022-07-17T05:03:19;95586.72;;;32.58;31.38
12626;BME280;6378;42.684;23.372;2022-07-17T05:05:45;95609.16;;;32.31;28.69
12626;BME280;6378;42.684;23.372;2022-07-17T05:08:10;95615.00;;;32.42;29.78
12626;BME280;6378;42.684;23.372;2022-07-17T05:10:36;95620.44;;;32.60;30.00
12626;BME280;6378;42.684;23.372;2022-07-17T05:13:02;95615.81;;;32.81;29.02
12626;BME280;6378;42.684;23.372;2022-07-17T05:15:27;95614.69;;;32.87;28.72
12626;BME280;6378;42.684;23.372;2022-07-17T05:17:53;95614.25;;;32.65;29.50
12626;BME280;6378;42.684;23.372;2022-07-17T05:20:18;95597.28;;;32.54;28.98
12626;BME280;6378;42.684;23.372;2022-07-17T05:22:43;95612.22;;;32.42;29.78
12626;BME280;6378;42.684;23.372;2022-07-17T05:25:09;95612.84;;;32.37;28.22
12626;BME280;6378;42.684;23.372;2022-07-17T05:27:35;95612.44;;;32.53;27.91
12626;BME280;6378;42.684;23.372;2022-07-17T05:30:00;95616.72;;;32.39;27.89
12626;BME280;6378;42.684;23.372;2022-07-17T05:32:26;95618.38;;;32.70;26.99
12626;BME280;6378;42.684;23.372;2022-07-17T05:34:51;95604.81;;;32.39;27.44
12626;BME280;6378;42.684;23.372;2022-07-17T05:37:17;95621.72;;;32.26;27.47
12626;BME280;6378;42.684;23.372;2022-07-17T05:39:42;95615.38;;;32.25;27.99
12626;BME280;6378;42.684;23.372;2022-07-17T05:42:08;95616.84;;;32.45;26.57
12626;BME280;6378;42.684;23.372;2022-07-17T05:44:33;95616.00;;;32.30;28.03
12626;BME280;6378;42.684;23.372;2022-07-17T05:46:58;95607.00;;;32.35;27.62
12626;BME280;6378;42.684;23.372;2022-07-17T05:49:24;95610.38;;;32.15;28.48
12626;BME280;6378;42.684;23.372;2022-07-17T05:51:49;95618.09;;;32.11;27.54
12626;BME280;6378;42.684;23.372;2022-07-17T05:54:15;95613.72;;;31.26;29.11
12626;BME280;6378;42.684;23.372;2022-07-17T05:56:40;95588.50;;;31.29;29.84
12626;BME280;6378;42.684;23.372;2022-07-17T05:59:06;95610.56;;;31.51;27.05
12626;BME280;6378;42.684;23.372;2022-07-17T06:01:31;95616.34;;;31.20;28.13
12626;BME280;6378;42.684;23.372;2022-07-17T06:03:56;95590.22;;;31.09;28.42
12626;BME280;6378;42.684;23.372;2022-07-17T06:06:22;95630.25;;;30.93;28.25
12626;BME280;6378;42.684;23.372;2022-07-17T06:08:47;95561.31;;;30.24;28.86
12626;BME280;6378;42.684;23.372;2022-07-17T06:11:13;95627.44;;;30.75;29.42
12626;BME280;6378;42.684;23.372;2022-07-17T06:13:38;95637.78;;;30.65;29.80
12626;BME280;6378;42.684;23.372;2022-07-17T06:16:04;95611.00;;;29.29;30.62
12626;BME280;6378;42.684;23.372;2022-07-17T06:18:29;95604.00;;;29.68;31.65
12626;BME280;6378;42.684;23.372;2022-07-17T06:20:55;95618.50;;;30.71;30.77
12626;BME280;6378;42.684;23.372;2022-07-17T06:23:20;95616.03;;;31.09;29.63
12626;BME280;6378;42.684;23.372;2022-07-17T06:25:45;95622.59;;;30.30;30.44
12626;BME280;6378;42.684;23.372;2022-07-17T06:28:11;95608.91;;;30.53;29.38
12626;BME280;6378;42.684;23.372;2022-07-17T06:30:37;95626.97;;;30.94;28.92
12626;BME280;6378;42.684;23.372;2022-07-17T06:33:03;95632.69;;;29.44;30.77
12626;BME280;6378;42.684;23.372;2022-07-17T06:35:28;95631.72;;;29.16;31.82
12626;BME280;6378;42.684;23.372;2022-07-17T06:37:56;95621.28;;;29.42;31.33
12626;BME280;6378;42.684;23.372;2022-07-17T06:40:22;95622.94;;;30.01;32.12
12626;BME280;6378;42.684;23.372;2022-07-17T06:42:47;95629.56;;;30.43;30.33
12626;BME280;6378;42.684;23.372;2022-07-17T06:45:13;95607.81;;;30.60;30.19
12626;BME280;6378;42.684;23.372;2022-07-17T06:47:39;95624.97;;;30.86;29.87
12626;BME280;6378;42.684;23.372;2022-07-17T06:50:05;95617.25;;;30.63;30.68
12626;BME280;6378;42.684;23.372;2022-07-17T06:52:31;95623.28;;;30.79;30.37
12626;BME280;6378;42.684;23.372;2022-07-17T06:54:56;95625.50;;;30.35;30.35
12626;BME280;6378;42.684;23.372;2022-07-17T06:57:22;95607.38;;;30.52;30.70
12626;BME280;6378;42.684;23.372;2022-07-17T06:59:48;95632.16;;;29.89;31.12
12626;BME280;6378;42.684;23.372;2022-07-17T07:02:13;95622.03;;;29.20;32.51
12626;BME280;6378;42.684;23.372;2022-07-17T07:04:39;95621.31;;;29.29;32.12
12626;BME280;6378;42.684;23.372;2022-07-17T07:07:04;95612.25;;;29.50;32.38
12626;BME280;6378;42.684;23.372;2022-07-17T07:09:30;95625.38;;;29.59;32.00
12626;BME280;6378;42.684;23.372;2022-07-17T07:11:55;95637.13;;;29.94;31.45
12626;BME280;6378;42.684;23.372;2022-07-17T07:14:20;95631.97;;;29.52;32.44
12626;BME280;6378;42.684;23.372;2022-07-17T07:16:46;95637.66;;;29.27;32.81
12626;BME280;6378;42.684;23.372;2022-07-17T07:19:11;95631.59;;;29.19;33.12
12626;BME280;6378;42.684;23.372;2022-07-17T07:21:37;95618.81;;;29.22;33.28
12626;BME280;6378;42.684;23.372;2022-07-17T07:24:03;95629.06;;;28.91;34.22
12626;BME280;6378;42.684;23.372;2022-07-17T07:26:29;95607.59;;;28.82;34.18
12626;BME280;6378;42.684;23.372;2022-07-17T07:28:55;95651.28;;;29.34;33.37
12626;BME280;6378;42.684;23.372;2022-07-17T07:31:20;95637.22;;;29.07;34.06
12626;BME280;6378;42.684;23.372;2022-07-17T07:33:46;95638.22;;;29.65;33.27
12626;BME280;6378;42.684;23.372;2022-07-17T07:36:11;95613.91;;;29.79;33.16
12626;BME280;6378;42.684;23.372;2022-07-17T07:38:37;95619.91;;;29.77;33.03
12626;BME280;6378;42.684;23.372;2022-07-17T07:41:02;95638.09;;;29.78;31.77
12626;BME280;6378;42.684;23.372;2022-07-17T07:43:29;95639.28;;;29.90;32.44
12626;BME280;6378;42.684;23.372;2022-07-17T07:45:54;95578.47;;;29.21;33.13
12626;BME280;6378;42.684;23.372;2022-07-17T07:48:20;95601.22;;;29.68;33.01
12626;BME280;6378;42.684;23.372;2022-07-17T07:50:45;95635.44;;;29.96;32.56
12626;BME280;6378;42.684;23.372;2022-07-17T07:53:11;95636.59;;;30.26;31.65
12626;BME280;6378;42.684;23.372;2022-07-17T07:55:36;95628.47;;;30.41;31.85
12626;BME280;6378;42.684;23.372;2022-07-17T07:58:10;95637.94;;;30.52;31.23
12626;BME280;6378;42.684;23.372;2022-07-17T08:00:37;95635.31;;;30.00;31.27
12626;BME280;6378;42.684;23.372;2022-07-17T08:03:03;95637.22;;;30.21;32.17
12626;BME280;6378;42.684;23.372;2022-07-17T08:05:30;95643.25;;;30.29;32.29
12626;BME280;6378;42.684;23.372;2022-07-17T08:07:56;95644.34;;;30.31;32.10
12626;BME280;6378;42.684;23.372;2022-07-17T08:10:21;95643.88;;;30.24;30.74
12626;BME280;6378;42.684;23.372;2022-07-17T08:12:47;95642.34;;;30.41;30.84
12626;BME280;6378;42.684;23.372;2022-07-17T08:15:17;95645.72;;;30.36;30.69
12626;BME280;6378;42.684;23.372;2022-07-17T08:17:43;95636.94;;;30.28;31.98
12626;BME280;6378;42.684;23.372;2022-07-17T08:20:09;95634.53;;;30.58;31.38
12626;BME280;6378;42.684;23.372;2022-07-17T08:22:35;95648.22;;;30.43;30.31
12626;BME280;6378;42.684;23.372;2022-07-17T08:25:01;95632.75;;;30.24;31.30
12626;BME280;6378;42.684;23.372;2022-07-17T08:27:26;95642.44;;;30.86;29.29
12626;BME280;6378;42.684;23.372;2022-07-17T08:29:52;95620.66;;;30.67;29.99
12626;BME280;6378;42.684;23.372;2022-07-17T08:32:17;95628.06;;;30.70;30.11
12626;BME280;6378;42.684;23.372;2022-07-17T08:34:43;95633.47;;;31.01;29.83
12626;BME280;6378;42.684;23.372;2022-07-17T08:37:08;95637.94;;;30.62;30.73
12626;BME280;6378;42.684;23.372;2022-07-17T08:39:34;95629.47;;;30.92;30.00
12626;BME280;6378;42.684;23.372;2022-07-17T08:42:02;95637.03;;;31.28;29.88
12626;BME280;6378;42.684;23.372;2022-07-17T08:44:27;95631.13;;;31.45;29.92
12626;BME280;6378;42.684;23.372;2022-07-17T08:46:54;95640.44;;;30.96;30.12
12626;BME280;6378;42.684;23.372;2022-07-17T08:49:21;95629.16;;;30.99;29.86
12626;BME280;6378;42.684;23.372;2022-07-17T08:51:47;95646.00;;;30.96;29.87
12626;BME280;6378;42.684;23.372;2022-07-17T08:54:14;95625.88;;;30.46;30.15
12626;BME280;6378;42.684;23.372;2022-07-17T08:56:40;95602.78;;;30.09;30.54
12626;BME280;6378;42.684;23.372;2022-07-17T08:59:06;95620.44;;;30.43;30.09
12626;BME280;6378;42.684;23.372;2022-07-17T09:01:31;95610.31;;;30.58;30.71
12626;BME280;6378;42.684;23.372;2022-07-17T09:04:02;95626.53;;;30.78;29.66
12626;BME280;6378;42.684;23.372;2022-07-17T09:06:34;95623.28;;;30.70;28.61
12626;BME280;6378;42.684;23.372;2022-07-17T09:09:07;95607.22;;;29.98;30.49
12626;BME280;6378;42.684;23.372;2022-07-17T09:11:50;95620.34;;;30.06;31.22
12626;BME280;6378;42.684;23.372;2022-07-17T09:14:18;95622.22;;;30.09;30.62
12626;BME280;6378;42.684;23.372;2022-07-17T09:16:58;95615.16;;;30.18;30.15
12626;BME280;6378;42.684;23.372;2022-07-17T09:19:34;95610.59;;;29.93;29.85
12626;BME280;6378;42.684;23.372;2022-07-17T09:22:15;95621.53;;;29.35;30.42
12626;BME280;6378;42.684;23.372;2022-07-17T09:24:46;95620.84;;;29.83;28.84
12626;BME280;6378;42.684;23.372;2022-07-17T09:27:13;95624.94;;;29.60;29.26
12626;BME280;6378;42.684;23.372;2022-07-17T09:30:09;95620.31;;;29.66;28.74
12626;BME280;6378;42.684;23.372;2022-07-17T09:32:41;95616.34;;;29.77;30.36
12626;BME280;6378;42.684;23.372;2022-07-17T09:35:09;95591.81;;;30.06;28.80
12626;BME280;6378;42.684;23.372;2022-07-17T09:37:36;95602.19;;;30.15;29.49
12626;BME280;6378;42.684;23.372;2022-07-17T09:40:10;95610.13;;;30.43;29.20
12626;BME280;6378;42.684;23.372;2022-07-17T09:42:36;95614.47;;;30.90;28.69
12626;BME280;6378;42.684;23.372;2022-07-17T09:47:31;95619.44;;;30.68;28.14
12626;BME280;6378;42.684;23.372;2022-07-17T09:49:58;95614.81;;;30.16;28.62
12626;BME280;6378;42.684;23.372;2022-07-17T09:52:28;95623.94;;;30.16;29.02
12626;BME280;6378;42.684;23.372;2022-07-17T09:54:57;95611.63;;;30.35;28.79
12626;BME280;6378;42.684;23.372;2022-07-17T09:57:32;95615.00;;;30.21;29.05
12626;BME280;6378;42.684;23.372;2022-07-17T10:00:06;95617.59;;;30.16;29.10
12626;BME280;6378;42.684;23.372;2022-07-17T10:02:39;95624.66;;;30.47;28.59
12626;BME280;6378;42.684;23.372;2022-07-17T10:05:06;95617.88;;;30.67;29.58
12626;BME280;6378;42.684;23.372;2022-07-17T10:07:33;95591.25;;;30.20;28.81
12626;BME280;6378;42.684;23.372;2022-07-17T10:09:59;95620.72;;;30.27;28.23
12626;BME280;6378;42.684;23.372;2022-07-17T10:12:25;95613.53;;;30.47;28.70
12626;BME280;6378;42.684;23.372;2022-07-17T10:14:51;95624.00;;;30.43;28.31
12626;BME280;6378;42.684;23.372;2022-07-17T10:17:20;95602.97;;;30.15;28.76
12626;BME280;6378;42.684;23.372;2022-07-17T10:19:52;95605.41;;;30.04;28.94
12626;BME280;6378;42.684;23.372;2022-07-17T10:22:19;95606.22;;;30.23;29.57
12626;BME280;6378;42.684;23.372;2022-07-17T10:24:50;95612.53;;;30.14;29.23
12626;BME280;6378;42.684;23.372;2022-07-17T10:27:21;95571.78;;;30.11;29.71
12626;BME280;6378;42.684;23.372;2022-07-17T10:29:47;95578.28;;;30.26;28.80
12626;BME280;6378;42.684;23.372;2022-07-17T10:32:23;95605.13;;;30.20;28.43
12626;BME280;6378;42.684;23.372;2022-07-17T10:34:54;95611.75;;;29.83;29.79
12626;BME280;6378;42.684;23.372;2022-07-17T10:47:45;95605.22;;;30.57;28.24
12626;BME280;6378;42.684;23.372;2022-07-17T10:50:12;95593.72;;;30.36;29.47
12626;BME280;6378;42.684;23.372;2022-07-17T10:52:38;95592.34;;;30.32;30.09
12626;BME280;6378;42.684;23.372;2022-07-17T10:55:05;95592.81;;;30.39;30.23
12626;BME280;6378;42.684;23.372;2022-07-17T10:57:31;95594.50;;;30.37;28.72
12626;BME280;6378;42.684;23.372;2022-07-17T10:59:57;95564.59;;;30.50;29.53
12626;BME280;6378;42.684;23.372;2022-07-17T11:02:29;95588.69;;;30.71;28.70
12626;BME280;6378;42.684;23.372;2022-07-17T11:05:08;95594.25;;;30.62;29.63
12626;BME280;6378;42.684;23.372;2022-07-17T11:07:34;95581.09;;;30.44;29.42
12626;BME280;6378;42.684;23.372;2022-07-17T11:10:00;95583.09;;;30.35;29.55
12626;BME280;6378;42.684;23.372;2022-07-17T11:12:32;95580.75;;;30.15;29.58
12626;BME280;6378;42.684;23.372;2022-07-17T11:15:02;95580.94;;;30.39;29.95
12626;BME280;6378;42.684;23.372;2022-07-17T11:17:28;95556.28;;;30.59;29.66
12626;BME280;6378;42.684;23.372;2022-07-17T11:19:54;95564.91;;;30.79;29.56
12626;BME280;6378;42.684;23.372;2022-07-17T11:22:24;95568.44;;;31.25;28.70
12626;BME280;6378;42.684;23.372;2022-07-17T11:24:50;95582.91;;;31.57;28.42
12626;BME280;6378;42.684;23.372;2022-07-17T11:27:27;95550.19;;;31.24;28.38
12626;BME280;6378;42.684;23.372;2022-07-17T11:29:55;95529.22;;;30.87;28.77
12626;BME280;6378;42.684;23.372;2022-07-17T11:32:21;95562.69;;;31.29;29.98
12626;BME280;6378;42.684;23.372;2022-07-17T11:34:47;95561.44;;;31.39;28.61
12626;BME280;6378;42.684;23.372;2022-07-17T11:37:13;95540.56;;;31.34;28.36
12626;BME280;6378;42.684;23.372;2022-07-17T11:39:40;95553.75;;;31.67;28.98
12626;BME280;6378;42.684;23.372;2022-07-17T11:42:11;95564.44;;;32.10;28.21
12626;BME280;6378;42.684;23.372;2022-07-17T11:44:38;95558.16;;;32.24;27.89
12626;BME280;6378;42.684;23.372;2022-07-17T11:47:04;95563.00;;;32.39;28.04
12626;BME280;6378;42.684;23.372;2022-07-17T11:49:31;95545.94;;;32.60;27.72
12626;BME280;6378;42.684;23.372;2022-07-17T11:51:59;95553.09;;;32.38;27.68
12626;BME280;6378;42.684;23.372;2022-07-17T11:54:31;95531.28;;;32.12;27.50
12626;BME280;6378;42.684;23.372;2022-07-17T11:56:58;95545.88;;;31.98;28.00
12626;BME280;6378;42.684;23.372;2022-07-17T11:59:29;95537.97;;;31.73;29.22
12626;BME280;6378;42.684;23.372;2022-07-17T12:01:55;95535.25;;;31.64;29.10
12626;BME280;6378;42.684;23.372;2022-07-17T12:04:21;95512.38;;;31.09;29.39
12626;BME280;6378;42.684;23.372;2022-07-17T12:06:58;95525.53;;;30.72;29.88
12626;BME280;6378;42.684;23.372;2022-07-17T12:09:27;95514.09;;;30.42;31.34
12626;BME280;6378;42.684;23.372;2022-07-17T12:11:52;95529.38;;;30.29;31.00
12626;BME280;6378;42.684;23.372;2022-07-17T12:14:18;95524.88;;;29.95;31.22
12626;BME280;6378;42.684;23.372;2022-07-17T12:16:44;95541.09;;;29.65;31.49
12626;BME280;6378;42.684;23.372;2022-07-17T12:19:12;95535.66;;;29.62;32.69
12626;BME280;6378;42.684;23.372;2022-07-17T12:24:32;95526.25;;;29.99;32.37
12626;BME280;6378;42.684;23.372;2022-07-17T12:27:00;95532.75;;;30.15;31.30
12626;BME280;6378;42.684;23.372;2022-07-17T12:29:26;95524.59;;;30.20;32.12
12626;BME280;6378;42.684;23.372;2022-07-17T12:32:06;95533.69;;;30.21;32.27
12626;BME280;6378;42.684;23.372;2022-07-17T12:34:33;95507.59;;;30.09;32.16
12626;BME280;6378;42.684;23.372;2022-07-17T12:36:59;95516.88;;;30.24;32.38
12626;BME280;6378;42.684;23.372;2022-07-17T12:39:24;95531.38;;;30.37;32.21
12626;BME280;6378;42.684;23.372;2022-07-17T12:41:50;95528.00;;;30.33;31.56
12626;BME280;6378;42.684;23.372;2022-07-17T12:44:16;95507.94;;;30.29;32.21
12626;BME280;6378;42.684;23.372;2022-07-17T12:46:41;95525.41;;;30.48;32.42
12626;BME280;6378;42.684;23.372;2022-07-17T12:49:07;95506.34;;;30.01;32.64
12626;BME280;6378;42.684;23.372;2022-07-17T12:51:32;95527.66;;;30.13;32.80
12626;BME280;6378;42.684;23.372;2022-07-17T12:53:58;95528.44;;;30.13;33.01
12626;BME280;6378;42.684;23.372;2022-07-17T12:56:23;95517.03;;;30.30;33.14
12626;BME280;6378;42.684;23.372;2022-07-17T12:58:49;95506.13;;;29.86;33.25
12626;BME280;6378;42.684;23.372;2022-07-17T13:01:16;95523.66;;;30.05;32.70
12626;BME280;6378;42.684;23.372;2022-07-17T13:03:42;95509.44;;;30.03;32.90
12626;BME280;6378;42.684;23.372;2022-07-17T13:06:07;95511.63;;;30.08;33.26
12626;BME280;6378;42.684;23.372;2022-07-17T13:08:33;95501.06;;;29.85;33.72
12626;BME280;6378;42.684;23.372;2022-07-17T13:10:59;95512.06;;;29.97;33.53
12626;BME280;6378;42.684;23.372;2022-07-17T13:13:25;95506.59;;;29.76;33.87